Time;durP1;ratioP1;P1;durP2;ratioP2;P2;SDS_P1;SDS_P2;PMS_P1;PMS_P2;Temp;Humidity;BMP_temperature;BMP_pressure;BME280_temperature;BME280_humidity;BME280_pressure;Samples;Min_cycle;Max_cycle;Signal;HPM_P1;HPM_P2
2022/05/14 00:02:20;;;;;;;16.58;6.00;;;11.70;99.90;;;;;;5001797;28;20161;-90
2022/05/14 00:04:46;;;;;;;12.80;6.13;;;11.70;99.90;;;;;;4999403;28;20613;-90
2022/05/14 00:07:12;;;;;;;13.20;7.05;;;11.60;99.90;;;;;;4997938;28;20052;-90
2022/05/14 00:09:38;;;;;;;15.13;6.03;;;11.60;99.90;;;;;;5023005;28;20041;-90
2022/05/14 00:14:49;;;;;;;15.50;6.40;;;11.60;99.90;;;;;;5016270;28;20578;-89
2022/05/14 00:17:17;;;;;;;17.83;6.30;;;11.60;99.90;;;;;;5014175;28;20049;-89
2022/05/14 00:19:43;;;;;;;17.80;7.35;;;11.60;99.90;;;;;;5032770;28;20115;-90
2022/05/14 00:22:17;;;;;;;18.60;6.30;;;11.50;99.90;;;;;;5015045;28;20491;-91
2022/05/14 00:24:51;;;;;;;16.60;6.57;;;11.50;99.90;;;;;;5017518;28;20052;-89
2022/05/14 00:27:22;;;;;;;12.63;6.28;;;11.50;99.90;;;;;;5018209;28;20409;-89
2022/05/14 00:29:48;;;;;;;15.07;6.20;;;11.50;99.90;;;;;;5016602;28;20038;-89
2022/05/14 00:32:26;;;;;;;15.02;6.65;;;11.40;99.90;;;;;;5016608;28;20264;-91
2022/05/14 00:35:01;;;;;;;17.67;6.65;;;11.40;99.90;;;;;;5007873;28;20030;-90
2022/05/14 00:37:42;;;;;;;20.17;7.18;;;11.50;99.90;;;;;;5020413;28;20509;-90
2022/05/14 00:40:59;;;;;;;18.13;6.32;;;11.50;99.90;;;;;;5028152;28;20167;-90
2022/05/14 00:43:40;;;;;;;17.10;6.80;;;11.50;99.90;;;;;;5019329;28;20469;-89
2022/05/14 00:46:41;;;;;;;14.77;6.73;;;11.40;99.90;;;;;;5037784;28;20040;-90
2022/05/14 00:49:08;;;;;;;15.75;6.70;;;11.40;99.90;;;;;;5045151;28;20506;-90
2022/05/14 00:51:42;;;;;;;14.63;6.85;;;11.30;99.90;;;;;;5020653;28;20036;-90
2022/05/14 00:54:15;;;;;;;21.23;6.68;;;11.40;99.90;;;;;;5057131;28;20075;-89
2022/05/14 00:56:53;;;;;;;20.85;6.70;;;11.40;99.90;;;;;;5035528;28;20095;-90
2022/05/14 00:59:22;;;;;;;19.52;7.22;;;11.40;99.90;;;;;;5042221;28;20051;-90
2022/05/14 01:01:49;;;;;;;19.25;7.43;;;11.30;99.90;;;;;;5019583;28;20123;-89
2022/05/14 01:04:26;;;;;;;20.48;8.02;;;11.30;99.90;;;;;;5043677;28;20483;-89
2022/05/14 01:07:05;;;;;;;15.80;7.28;;;11.30;99.90;;;;;;5037035;28;20124;-90
2022/05/14 01:09:34;;;;;;;14.57;7.15;;;11.40;99.90;;;;;;5025694;28;20067;-89
2022/05/14 01:12:11;;;;;;;19.60;7.50;;;11.40;99.90;;;;;;5022843;28;20040;-90
2022/05/14 01:14:43;;;;;;;20.55;7.80;;;11.40;99.90;;;;;;5021370;28;20207;-89
2022/05/14 01:17:11;;;;;;;15.98;7.55;;;11.40;99.90;;;;;;5006557;28;20083;-90
2022/05/14 01:20:14;;;;;;;18.92;7.82;;;11.40;99.90;;;;;;5007481;28;20056;-91
2022/05/14 01:23:09;;;;;;;19.77;8.15;;;11.50;99.90;;;;;;5022315;28;20106;-90
2022/05/14 01:29:25;;;;;;;21.08;8.25;;;11.50;99.90;;;;;;5023723;28;20126;-90
2022/05/14 01:32:00;;;;;;;19.00;8.15;;;11.50;99.90;;;;;;5021600;28;20084;-90
2022/05/14 01:34:40;;;;;;;22.20;8.13;;;11.40;99.90;;;;;;5007174;28;20616;-91
2022/05/14 01:37:14;;;;;;;23.92;9.02;;;11.40;99.90;;;;;;5007807;28;20147;-90
2022/05/14 01:40:09;;;;;;;;;;;11.40;1.00;;;;;;4985774;28;20055;-90
2022/05/14 01:43:04;;;;;;;22.70;8.65;;;11.40;1.00;;;;;;4975412;28;19983;-92
2022/05/14 01:48:43;;;;;;;26.42;9.65;;;11.50;1.00;;;;;;5021723;28;20364;-92
2022/05/14 01:51:24;;;;;;;22.50;9.02;;;11.50;1.00;;;;;;5020131;28;20045;-89
2022/05/14 01:54:09;;;;;;;26.45;8.60;;;11.50;1.00;;;;;;5021847;28;20521;-91
2022/05/14 01:56:37;;;;;;;22.42;8.52;;;11.50;1.00;;;;;;5010977;28;20049;-92
2022/05/14 01:59:10;;;;;;;24.65;9.05;;;11.60;99.90;;;;;;5002195;28;20029;-90
2022/05/14 02:01:42;;;;;;;24.20;8.60;;;11.50;69.60;;;;;;5017949;28;20523;-90
2022/05/14 02:04:17;;;;;;;27.45;9.40;;;11.50;67.40;;;;;;5005175;28;20068;-90
2022/05/14 02:06:44;;;;;;;30.63;8.88;;;11.50;79.40;;;;;;5024473;28;20047;-90
2022/05/14 02:09:19;;;;;;;27.48;9.57;;;11.50;99.90;;;;;;5012568;28;20145;-90
2022/05/14 02:11:58;;;;;;;29.45;9.25;;;11.50;99.90;;;;;;5004426;28;20052;-90
2022/05/14 02:14:45;;;;;;;32.55;9.45;;;11.50;99.90;;;;;;5014908;28;20041;-90
2022/05/14 02:17:17;;;;;;;24.88;8.88;;;11.50;99.90;;;;;;5008441;28;20033;-91
2022/05/14 02:19:47;;;;;;;31.67;9.75;;;11.40;99.90;;;;;;5008674;28;20140;-89
2022/05/14 02:22:13;;;;;;;31.90;8.93;;;11.40;99.90;;;;;;5003486;28;20107;-90
2022/05/14 02:24:46;;;;;;;31.70;9.48;;;11.40;99.90;;;;;;5004157;28;20550;-88
2022/05/14 02:27:15;;;;;;;31.35;9.65;;;11.20;99.90;;;;;;5034676;28;20116;-90
2022/05/14 02:30:13;;;;;;;24.45;9.13;;;11.10;99.90;;;;;;5004163;28;20040;-90
2022/05/14 02:32:50;;;;;;;30.45;9.80;;;11.00;78.40;;;;;;4997049;28;20420;-89
2022/05/14 02:35:22;;;;;;;31.83;8.57;;;10.90;73.10;;;;;;5000639;28;20127;-90
2022/05/14 02:37:51;;;;;;;29.25;9.43;;;10.80;98.60;;;;;;5001662;28;20072;-89
2022/05/14 02:40:17;;;;;;;30.95;10.60;;;10.80;99.90;;;;;;5013706;28;20096;-90
2022/05/14 02:42:48;;;;;;;34.20;10.98;;;10.80;99.90;;;;;;5023566;28;20075;-89
2022/05/14 02:45:31;;;;;;;26.30;9.45;;;10.80;99.90;;;;;;4998307;28;20051;-90
2022/05/14 02:48:10;;;;;;;34.90;10.82;;;10.80;99.90;;;;;;5010382;28;20025;-89
2022/05/14 02:50:41;;;;;;;36.40;10.77;;;10.80;99.90;;;;;;5003147;28;20121;-89
2022/05/14 02:53:14;;;;;;;33.22;10.18;;;10.70;99.90;;;;;;5034178;28;20132;-90
2022/05/14 02:55:56;;;;;;;31.25;10.20;;;10.70;99.90;;;;;;5017838;28;20068;-88
2022/05/14 03:01:15;;;;;;;29.95;10.65;;;10.50;99.90;;;;;;5018602;28;20110;-88
2022/05/14 03:03:44;;;;;;;36.83;11.13;;;10.50;99.90;;;;;;5016876;28;20049;-89
2022/05/14 03:06:13;;;;;;;34.22;11.02;;;10.40;99.90;;;;;;5012782;28;20045;-90
2022/05/14 03:08:44;;;;;;;36.42;10.82;;;10.40;99.90;;;;;;5016271;28;20470;-89
2022/05/14 03:11:16;;;;;;;39.45;11.23;;;10.40;99.90;;;;;;5018712;28;20037;-89
2022/05/14 03:13:44;;;;;;;41.88;12.65;;;10.50;99.90;;;;;;5031552;28;20102;-91
2022/05/14 03:16:11;;;;;;;37.35;12.68;;;10.40;99.90;;;;;;5018553;28;20071;-89
2022/05/14 03:18:37;;;;;;;34.33;12.18;;;10.40;99.90;;;;;;5020757;28;20108;-89
2022/05/14 03:21:03;;;;;;;35.75;11.68;;;10.30;99.90;;;;;;5031416;28;20094;-89
2022/05/14 03:23:29;;;;;;;37.65;11.10;;;10.30;99.90;;;;;;5032528;28;20049;-89
2022/05/14 03:25:55;;;;;;;37.85;12.32;;;10.20;99.90;;;;;;5018392;28;20094;-89
2022/05/14 03:28:24;;;;;;;33.80;11.38;;;10.10;99.90;;;;;;5013746;28;20504;-89
2022/05/14 03:31:00;;;;;;;36.03;12.50;;;10.10;99.90;;;;;;5002649;28;20575;-89
2022/05/14 03:33:34;;;;;;;33.85;12.32;;;10.10;99.90;;;;;;5001921;28;20403;-90
2022/05/14 03:36:00;;;;;;;45.70;13.10;;;10.00;99.90;;;;;;5010243;28;20041;-90
2022/05/14 03:38:29;;;;;;;33.78;12.35;;;10.10;99.90;;;;;;5021556;28;20106;-89
2022/05/14 03:40:58;;;;;;;38.97;13.05;;;10.10;99.90;;;;;;5024011;28;20060;-89
2022/05/14 03:43:39;;;;;;;37.22;13.20;;;10.10;99.90;;;;;;5051748;28;20099;-91
2022/05/14 03:46:10;;;;;;;37.22;13.27;;;10.00;99.90;;;;;;5022440;28;20067;-90
2022/05/14 03:48:42;;;;;;;45.08;13.90;;;10.20;99.90;;;;;;5026715;28;20535;-91
2022/05/14 03:51:08;;;;;;;39.83;14.68;;;10.20;99.90;;;;;;5030793;28;20056;-89
2022/05/14 03:53:40;;;;;;;42.65;13.82;;;10.20;99.90;;;;;;5014501;28;20067;-89
2022/05/14 03:56:13;;;;;;;37.70;14.02;;;10.10;99.90;;;;;;5021516;28;20071;-89
2022/05/14 03:58:45;;;;;;;45.60;13.85;;;10.20;99.90;;;;;;5017127;28;20116;-90
2022/05/14 04:01:18;;;;;;;39.70;15.10;;;10.20;99.90;;;;;;5016028;28;20501;-90
2022/05/14 04:03:49;;;;;;;44.85;14.52;;;10.40;99.90;;;;;;5023956;28;20048;-89
2022/05/14 04:06:18;;;;;;;41.20;15.23;;;10.50;99.90;;;;;;5018645;28;20132;-90
2022/05/14 04:08:56;;;;;;;41.55;14.25;;;10.50;1.00;;;;;;5019771;28;20484;-90
2022/05/14 04:11:33;;;;;;;48.45;14.50;;;10.50;99.90;;;;;;5033561;28;21416;-90
2022/05/14 04:14:12;;;;;;;40.75;14.65;;;10.50;99.90;;;;;;5037157;28;20076;-90
2022/05/14 04:16:53;;;;;;;39.30;14.15;;;10.60;99.90;;;;;;5045048;28;20041;-90
2022/05/14 04:19:22;;;;;;;46.08;14.45;;;10.70;99.90;;;;;;5023635;28;20077;-91
2022/05/14 04:21:48;;;;;;;41.92;14.93;;;10.70;99.90;;;;;;5050575;28;20385;-89
2022/05/14 04:24:14;;;;;;;40.03;15.63;;;10.80;99.90;;;;;;5016366;28;20033;-91
2022/05/14 04:26:40;;;;;;;35.85;13.93;;;10.80;99.90;;;;;;5019095;28;20040;-89
2022/05/14 04:29:06;;;;;;;41.05;14.35;;;10.90;99.90;;;;;;5022155;28;20560;-90
2022/05/14 04:31:32;;;;;;;37.80;14.18;;;10.90;99.90;;;;;;5018461;28;20267;-90
2022/05/14 04:33:58;;;;;;;43.83;15.48;;;10.90;99.90;;;;;;5016883;28;20211;-89
2022/05/14 04:36:24;;;;;;;39.60;13.60;;;10.90;99.90;;;;;;5032692;28;20215;-90
2022/05/14 04:38:50;;;;;;;38.35;13.82;;;10.90;99.90;;;;;;5030003;28;20160;-91
2022/05/14 04:41:16;;;;;;;42.90;14.73;;;10.90;99.90;;;;;;5018392;28;20045;-89
2022/05/14 04:43:42;;;;;;;45.05;14.57;;;10.90;99.90;;;;;;5017997;28;20041;-90
2022/05/14 04:46:08;;;;;;;38.38;13.77;;;11.00;99.90;;;;;;5013486;28;20128;-90
2022/05/14 04:48:37;;;;;;;39.20;14.82;;;11.00;99.90;;;;;;5019037;28;20041;-89
2022/05/14 04:51:03;;;;;;;37.28;13.18;;;11.10;99.90;;;;;;5020382;28;20179;-92
2022/05/14 04:53:29;;;;;;;34.38;14.05;;;11.10;99.90;;;;;;5002937;28;20065;-90
2022/05/14 04:55:55;;;;;;;42.03;13.68;;;11.10;99.90;;;;;;5050320;28;20057;-90
2022/05/14 04:58:21;;;;;;;42.40;13.65;;;11.20;99.90;;;;;;5032861;28;20033;-91
2022/05/14 05:00:47;;;;;;;37.90;14.02;;;11.30;99.90;;;;;;5034351;28;20041;-90
2022/05/14 05:03:22;;;;;;;34.95;13.32;;;11.30;99.90;;;;;;5013471;28;20124;-90
2022/05/14 05:05:54;;;;;;;42.58;14.18;;;11.30;99.90;;;;;;5033071;28;20136;-91
2022/05/14 05:08:25;;;;;;;34.00;13.82;;;11.20;99.90;;;;;;5015499;28;20048;-90
2022/05/14 05:10:52;;;;;;;35.78;13.60;;;11.30;99.90;;;;;;5034926;28;20120;-90
2022/05/14 05:13:20;;;;;;;33.17;13.23;;;11.40;99.90;;;;;;5024008;28;20044;-89
2022/05/14 05:15:46;;;;;;;35.95;13.73;;;11.40;99.90;;;;;;5020644;28;20148;-90
2022/05/14 05:18:13;;;;;;;40.38;14.30;;;11.40;99.90;;;;;;5028496;28;20096;-90
2022/05/14 05:20:41;;;;;;;40.30;13.70;;;11.40;99.90;;;;;;4999345;28;20322;-90
2022/05/14 05:23:12;;;;;;;35.05;12.38;;;11.40;99.90;;;;;;5016358;28;20037;-88
2022/05/14 05:25:38;;;;;;;40.28;13.52;;;11.60;99.90;;;;;;5016650;28;20037;-90
2022/05/14 05:28:04;;;;;;;37.63;12.80;;;11.80;99.90;;;;;;5019357;28;20045;-90
2022/05/14 05:30:30;;;;;;;36.60;12.77;;;12.00;99.90;;;;;;5016809;28;20040;-89
2022/05/14 05:32:56;;;;;;;35.63;13.07;;;12.00;99.30;;;;;;4999306;28;20088;-89
2022/05/14 05:35:26;;;;;;;35.83;12.50;;;11.90;96.90;;;;;;5018870;28;20057;-89
2022/05/14 05:37:52;;;;;;;35.28;13.00;;;12.00;92.50;;;;;;5003817;28;20055;-91
2022/05/14 05:40:18;;;;;;;34.67;12.75;;;12.10;67.90;;;;;;5015934;28;20040;-91
2022/05/14 05:42:44;;;;;;;34.03;12.93;;;12.10;56.80;;;;;;5005464;28;20064;-90
2022/05/14 05:45:13;;;;;;;27.42;11.68;;;12.20;53.80;;;;;;5008351;28;20557;-89
2022/05/14 05:47:39;;;;;;;33.58;11.82;;;12.20;21.00;;;;;;5004587;28;20137;-90
2022/05/14 05:50:05;;;;;;;34.55;12.57;;;12.30;4.30;;;;;;4998916;28;20124;-90
2022/05/14 05:52:32;;;;;;;32.35;12.32;;;12.40;1.00;;;;;;5014789;28;20045;-90
2022/05/14 05:57:46;;;;;;;38.33;12.07;;;12.60;1.00;;;;;;5018928;28;20111;-90
2022/05/14 06:00:21;;;;;;;30.33;10.85;;;12.70;1.00;;;;;;5026336;28;20037;-91
2022/05/14 06:02:50;;;;;;;39.30;11.57;;;12.80;1.00;;;;;;5005644;28;20494;-91
2022/05/14 06:05:19;;;;;;;37.90;11.02;;;12.90;99.90;;;;;;4998946;28;20573;-91
2022/05/14 06:07:45;;;;;;;34.53;10.65;;;13.00;99.90;;;;;;5017601;28;20054;-90
2022/05/14 06:10:13;;;;;;;29.05;9.65;;;12.90;99.90;;;;;;5039556;28;20114;-89
2022/05/14 06:12:42;;;;;;;28.25;9.40;;;12.90;99.90;;;;;;5000436;28;20102;-90
2022/05/14 06:15:10;;;;;;;29.95;9.48;;;13.00;99.90;;;;;;5019580;28;20080;-90
2022/05/14 06:17:37;;;;;;;30.90;10.40;;;13.10;99.90;;;;;;5021005;28;20052;-90
2022/05/14 06:20:05;;;;;;;31.17;9.63;;;13.10;99.90;;;;;;4997520;28;20120;-91
2022/05/14 06:22:30;;;;;;;28.52;9.65;;;13.10;99.90;;;;;;5036476;28;20041;-90
2022/05/14 06:24:59;;;;;;;31.05;10.02;;;13.20;99.90;;;;;;5026206;28;20711;-92
2022/05/14 06:27:25;;;;;;;31.80;9.60;;;13.20;99.90;;;;;;5031960;28;20067;-89
2022/05/14 06:29:51;;;;;;;31.70;9.23;;;13.30;99.90;;;;;;5000657;28;20065;-90
2022/05/14 06:32:16;;;;;;;25.35;8.85;;;13.40;99.90;;;;;;5001047;28;20457;-90
2022/05/14 06:34:45;;;;;;;30.52;9.75;;;13.60;99.90;;;;;;5041714;28;20039;-88
2022/05/14 06:37:13;;;;;;;25.58;8.88;;;13.60;99.90;;;;;;5002504;28;20033;-90
2022/05/14 06:39:40;;;;;;;24.60;8.38;;;13.50;99.90;;;;;;5029928;28;20116;-91
2022/05/14 06:42:06;;;;;;;28.30;9.35;;;13.50;99.90;;;;;;5024896;28;20525;-90
2022/05/14 06:44:32;;;;;;;25.42;8.32;;;13.60;99.90;;;;;;5003955;28;20049;-90
2022/05/14 06:46:58;;;;;;;24.38;8.48;;;13.70;99.90;;;;;;5013870;28;20044;-90
2022/05/14 06:49:32;;;;;;;26.55;8.18;;;14.00;99.90;;;;;;5005592;28;20044;-90
2022/05/14 06:52:01;;;;;;;22.23;7.75;;;14.10;92.00;;;;;;5015013;28;20044;-89
2022/05/14 06:54:30;;;;;;;27.55;8.07;;;14.20;99.20;;;;;;5004570;28;20211;-90
2022/05/14 06:57:00;;;;;;;20.13;7.35;;;14.30;68.20;;;;;;5004023;28;20048;-90
2022/05/14 06:59:27;;;;;;;25.52;7.55;;;14.40;79.90;;;;;;5012846;28;20072;-92
2022/05/14 07:01:56;;;;;;;21.05;7.03;;;14.60;29.10;;;;;;5015947;28;20607;-91
2022/05/14 07:07:06;;;;;;;19.47;7.03;;;14.80;26.50;;;;;;5016865;28;20131;-91
2022/05/14 07:09:33;;;;;;;20.00;7.38;;;14.90;1.00;;;;;;5012878;28;20132;-91
2022/05/14 07:12:04;;;;;;;23.13;7.20;;;15.10;1.00;;;;;;5025882;28;20490;-90
2022/05/14 07:14:32;;;;;;;23.75;6.93;;;15.20;1.00;;;;;;5004558;28;20213;-89
2022/05/14 07:16:58;;;;;;;24.95;7.40;;;15.40;1.00;;;;;;4999284;28;20275;-91
2022/05/14 07:19:25;;;;;;;21.38;6.35;;;15.30;1.00;;;;;;5015885;28;20184;-92
2022/05/14 07:21:55;;;;;;;19.75;5.93;;;15.40;99.90;;;;;;5015953;28;20041;-90
2022/05/14 07:24:26;;;;;;;22.30;6.07;;;15.40;99.90;;;;;;5018288;28;20042;-90
2022/05/14 07:26:54;;;;;;;22.60;5.35;;;15.30;99.90;;;;;;5028271;28;20095;-90
2022/05/14 07:29:22;;;;;;;22.35;6.30;;;15.20;99.90;;;;;;5022971;28;20073;-89
2022/05/14 07:31:52;;;;;;;23.63;6.43;;;15.10;99.90;;;;;;5019084;28;20049;-91
2022/05/14 07:34:20;;;;;;;20.80;5.90;;;15.20;1.00;;;;;;5026379;28;20037;-90
2022/05/14 07:36:53;;;;;;;19.40;5.10;;;15.30;99.90;;;;;;5033537;28;20522;-90
2022/05/14 07:39:21;;;;;;;21.55;5.40;;;15.20;99.90;;;;;;4998698;28;20152;-89
2022/05/14 07:41:53;;;;;;;24.20;5.45;;;15.50;99.90;;;;;;5010981;28;20394;-91
2022/05/14 07:44:28;;;;;;;18.52;5.30;;;15.50;99.90;;;;;;5013415;28;20042;-91
2022/05/14 07:46:55;;;;;;;22.15;5.57;;;15.50;99.90;;;;;;5019631;28;20329;-89
2022/05/14 07:49:23;;;;;;;18.63;5.65;;;15.70;99.90;;;;;;5024912;28;20052;-90
2022/05/14 07:51:52;;;;;;;20.50;5.32;;;15.60;99.90;;;;;;5033093;28;20160;-91
2022/05/14 07:54:20;;;;;;;17.25;5.18;;;15.70;99.90;;;;;;5012352;28;20074;-91
2022/05/14 07:56:45;;;;;;;23.83;5.70;;;15.80;99.90;;;;;;5027467;28;20045;-92
2022/05/14 07:59:13;;;;;;;17.52;4.95;;;16.00;99.90;;;;;;5016343;28;20044;-91
2022/05/14 08:01:42;;;;;;;18.83;5.22;;;16.00;99.90;;;;;;5007140;28;20513;-90
2022/05/14 08:04:11;;;;;;;18.33;5.22;;;16.20;99.90;;;;;;4996660;28;20030;-89
2022/05/14 08:06:39;;;;;;;15.55;4.03;;;16.40;99.90;;;;;;5012192;28;20040;-89
2022/05/14 08:09:05;;;;;;;21.90;5.70;;;16.40;99.90;;;;;;4999807;28;20665;-90
2022/05/14 08:11:34;;;;;;;20.80;4.95;;;16.20;99.90;;;;;;5001378;28;20204;-89
2022/05/14 08:14:04;;;;;;;19.42;4.70;;;16.60;99.90;;;;;;5006448;28;20201;-90
2022/05/14 08:16:31;;;;;;;20.48;5.40;;;16.60;99.90;;;;;;5023367;28;20037;-90
2022/05/14 08:18:58;;;;;;;17.75;5.28;;;16.80;99.90;;;;;;5022445;28;20133;-89
2022/05/14 08:24:30;;;;;;;17.17;5.70;;;17.00;99.90;;;;;;5049463;28;20036;-91
2022/05/14 08:26:55;;;;;;;20.33;5.00;;;17.20;99.90;;;;;;5005896;28;20049;-91
2022/05/14 08:29:22;;;;;;;16.40;4.93;;;17.30;99.90;;;;;;5001208;28;20044;-89
2022/05/14 08:31:49;;;;;;;19.73;4.65;;;17.60;99.90;;;;;;5004505;28;20049;-90
2022/05/14 08:34:15;;;;;;;15.98;4.53;;;17.50;99.90;;;;;;5040053;28;20140;-90
2022/05/14 08:36:41;;;;;;;18.60;5.28;;;16.80;99.90;;;;;;5019735;28;20121;-89
2022/05/14 08:39:07;;;;;;;23.13;5.38;;;16.70;99.90;;;;;;5009910;28;20144;-90
2022/05/14 08:41:39;;;;;;;22.08;5.63;;;17.20;99.90;;;;;;5019490;28;20351;-90
2022/05/14 08:44:16;;;;;;;18.88;5.18;;;17.60;99.90;;;;;;4998716;28;20052;-90
2022/05/14 08:46:45;;;;;;;18.40;4.82;;;17.60;99.90;;;;;;5018852;28;20037;-90
2022/05/14 08:49:41;;;;;;;16.67;4.72;;;17.80;99.90;;;;;;5024301;28;20044;-92
2022/05/14 08:52:17;;;;;;;15.20;4.45;;;18.00;99.90;;;;;;5023902;28;20048;-91
2022/05/14 08:54:43;;;;;;;21.23;5.50;;;18.30;99.90;;;;;;5037769;28;20048;-91
2022/05/14 08:57:31;;;;;;;20.88;4.88;;;18.20;99.90;;;;;;5032371;28;20029;-89
2022/05/14 08:59:59;;;;;;;19.08;5.18;;;18.60;99.90;;;;;;5001875;28;20040;-91
2022/05/14 09:02:35;;;;;;;16.88;4.93;;;18.40;99.90;;;;;;4999429;28;20112;-91
2022/05/14 09:05:06;;;;;;;22.67;5.50;;;18.50;99.90;;;;;;5004606;28;20482;-90
2022/05/14 09:07:34;;;;;;;20.63;4.93;;;18.30;99.90;;;;;;5021056;28;20045;-90
2022/05/14 09:10:08;;;;;;;15.82;5.15;;;18.60;99.90;;;;;;5009983;28;20194;-90
2022/05/14 09:12:37;;;;;;;21.65;5.70;;;18.50;99.90;;;;;;5020415;28;20060;-89
2022/05/14 09:15:22;;;;;;;19.83;4.50;;;19.00;99.90;;;;;;5028980;28;20081;-89
2022/05/14 09:18:01;;;;;;;19.55;4.90;;;18.60;99.90;;;;;;5020020;28;20529;-91
2022/05/14 09:20:30;;;;;;;17.52;5.20;;;18.00;99.90;;;;;;5025323;28;20056;-90
2022/05/14 09:22:57;;;;;;;15.00;4.75;;;17.90;99.90;;;;;;5032248;28;20033;-91
2022/05/14 09:25:36;;;;;;;14.50;4.25;;;17.90;99.90;;;;;;5028278;28;20098;-90
2022/05/14 09:28:09;;;;;;;17.42;4.80;;;18.20;99.90;;;;;;5017265;28;20040;-90
2022/05/14 09:30:51;;;;;;;17.25;4.40;;;18.50;99.90;;;;;;5014793;28;20036;-90
2022/05/14 09:33:27;;;;;;;14.48;4.50;;;18.50;99.90;;;;;;5042600;28;20118;-90
2022/05/14 09:35:59;;;;;;;17.55;5.18;;;18.50;99.90;;;;;;5027072;28;20037;-91
2022/05/14 09:38:26;;;;;;;18.67;4.85;;;19.20;99.90;;;;;;5021093;28;20474;-90
2022/05/14 09:40:55;;;;;;;19.50;4.90;;;19.00;99.90;;;;;;5018674;28;20474;-91
2022/05/14 09:43:23;;;;;;;18.02;4.88;;;18.50;99.90;;;;;;5003423;28;20395;-91
2022/05/14 09:46:06;;;;;;;14.95;4.70;;;18.40;99.90;;;;;;5022007;28;20059;-91
2022/05/14 09:48:49;;;;;;;22.95;5.32;;;18.50;99.90;;;;;;5008676;28;20406;-90
2022/05/14 09:51:47;;;;;;;20.70;4.78;;;18.30;99.90;;;;;;5020633;28;20037;-90
2022/05/14 09:54:22;;;;;;;22.88;5.30;;;18.10;99.90;;;;;;5015946;28;20040;-91
2022/05/14 09:57:12;;;;;;;18.02;4.30;;;18.90;99.90;;;;;;5014855;28;20072;-91
2022/05/14 10:00:05;;;;;;;19.88;5.03;;;19.00;99.90;;;;;;5021777;28;20053;-90
2022/05/14 10:03:06;;;;;;;22.13;4.90;;;18.60;99.90;;;;;;4976774;28;20128;-92
2022/05/14 10:05:56;;;;;;;17.00;4.68;;;18.50;99.90;;;;;;4999129;28;20052;-90
2022/05/14 10:08:50;;;;;;;15.52;4.95;;;18.30;99.90;;;;;;5030224;28;20056;-90
2022/05/14 10:11:44;;;;;;;18.17;4.53;;;18.20;99.90;;;;;;5017858;28;20120;-89
2022/05/14 10:14:35;;;;;;;17.25;4.95;;;18.50;99.90;;;;;;5039470;28;20486;-91
2022/05/14 10:17:42;;;;;;;14.80;4.30;;;18.20;99.90;;;;;;5023744;28;20358;-89
2022/05/14 10:20:36;;;;;;;21.70;5.22;;;18.00;99.90;;;;;;5001837;28;20029;-88
2022/05/14 10:29:42;;;;;;;16.40;5.03;;;18.70;99.90;;;;;;5021567;28;20041;-92
2022/05/14 10:32:21;;;;;;;14.65;4.57;;;18.50;99.90;;;;;;5001259;28;20068;-91
2022/05/14 10:35:08;;;;;;;19.00;5.07;;;18.40;99.90;;;;;;5012939;28;20029;-91
2022/05/14 10:38:04;;;;;;;15.13;4.68;;;18.80;99.90;;;;;;4999497;28;20052;-90
2022/05/14 10:40:44;;;;;;;19.05;5.10;;;18.70;99.90;;;;;;5004827;28;20041;-90
2022/05/14 10:43:27;;;;;;;16.23;4.85;;;19.10;99.90;;;;;;5029195;28;20118;-90
2022/05/14 10:46:06;;;;;;;16.85;4.10;;;19.70;99.90;;;;;;5013098;28;20532;-90
2022/05/14 10:48:33;;;;;;;16.83;4.85;;;19.20;99.90;;;;;;5016673;28;20168;-91
2022/05/14 10:51:14;;;;;;;15.25;4.18;;;20.10;99.90;;;;;;4994633;28;20045;-91
2022/05/14 10:53:42;;;;;;;16.77;4.43;;;20.30;99.90;;;;;;5033144;28;20469;-90
2022/05/14 10:56:29;;;;;;;16.20;4.40;;;20.00;99.90;;;;;;5010725;28;20037;-89
2022/05/14 10:59:10;;;;;;;14.05;5.22;;;19.60;99.90;;;;;;5011998;28;20079;-91
2022/05/14 11:02:08;;;;;;;15.50;4.10;;;19.40;99.90;;;;;;5023225;28;20136;-90
2022/05/14 11:04:48;;;;;;;13.48;4.63;;;19.20;99.90;;;;;;5030104;28;20049;-90
2022/05/14 11:07:39;;;;;;;17.70;4.88;;;20.20;99.90;;;;;;5018429;28;20045;-90
2022/05/14 11:10:19;;;;;;;15.77;4.70;;;20.00;99.90;;;;;;5005039;28;20059;-89
2022/05/14 11:12:50;;;;;;;12.32;4.40;;;19.40;99.90;;;;;;4995489;28;20512;-90
2022/05/14 11:15:28;;;;;;;22.60;4.75;;;19.30;99.90;;;;;;5008188;28;20041;-93
2022/05/14 11:18:07;;;;;;;18.83;4.97;;;19.00;99.90;;;;;;5001471;28;20452;-88
2022/05/14 11:20:33;;;;;;;17.33;4.85;;;18.50;99.90;;;;;;5028545;28;20048;-89
2022/05/14 11:23:13;;;;;;;14.80;4.78;;;18.40;99.90;;;;;;5004601;28;20029;-90
2022/05/14 11:25:39;;;;;;;20.27;4.82;;;18.70;99.90;;;;;;5012962;28;20127;-92
2022/05/14 11:28:31;;;;;;;16.88;4.70;;;18.80;99.90;;;;;;5010977;28;20045;-91
2022/05/14 11:31:21;;;;;;;16.40;4.75;;;18.80;99.90;;;;;;4993619;28;20533;-88
2022/05/14 11:33:49;;;;;;;17.20;4.85;;;18.80;99.90;;;;;;4997764;28;20083;-91
2022/05/14 11:36:26;;;;;;;18.67;5.68;;;20.20;99.90;;;;;;5022482;28;20098;-90
2022/05/14 11:39:06;;;;;;;13.95;4.65;;;19.80;99.90;;;;;;5029081;28;20048;-90
2022/05/14 11:41:35;;;;;;;15.38;4.40;;;19.40;99.90;;;;;;5028613;28;20045;-90
2022/05/14 11:44:06;;;;;;;16.95;5.05;;;18.90;99.90;;;;;;5008243;28;20559;-90
2022/05/14 11:46:45;;;;;;;19.38;5.55;;;19.00;99.90;;;;;;4996636;28;20092;-90
2022/05/14 11:49:36;;;;;;;19.75;5.05;;;18.80;99.90;;;;;;4994299;28;20037;-90
2022/05/14 11:52:33;;;;;;;23.10;5.47;;;19.00;99.90;;;;;;5023396;28;20427;-88
2022/05/14 11:55:23;;;;;;;21.40;5.03;;;18.90;99.90;;;;;;4997756;28;20522;-89
2022/05/14 11:58:08;;;;;;;20.60;5.10;;;19.70;99.90;;;;;;4997950;28;20053;-91
2022/05/14 12:00:35;;;;;;;;;;;20.70;99.90;;;;;;5009162;28;20028;-90
2022/05/14 12:03:15;;;;;;;19.20;5.18;;;20.80;99.90;;;;;;5009492;28;20416;-90
2022/05/14 12:05:50;;;;;;;16.42;4.82;;;21.00;99.90;;;;;;4928977;28;20136;-90
2022/05/14 12:08:54;;;;;;;14.98;4.43;;;21.00;99.90;;;;;;4974990;28;20213;-91
2022/05/14 12:11:40;;;;;;;17.17;4.43;;;20.60;99.90;;;;;;4970307;28;20054;-91
2022/05/14 12:14:27;;;;;;;19.48;4.88;;;20.00;99.90;;;;;;4989880;28;20666;-93
2022/05/14 12:16:59;;;;;;;18.27;4.45;;;19.60;99.90;;;;;;4983707;28;20037;-93
2022/05/14 12:20:01;;;;;;;17.10;4.32;;;19.90;99.90;;;;;;4986650;28;20045;-93
2022/05/14 12:22:56;;;;;;;17.17;4.85;;;20.30;99.90;;;;;;4981115;28;21309;-93
2022/05/14 12:25:47;;;;;;;16.23;4.88;;;20.10;99.90;;;;;;5011867;28;20049;-95
2022/05/14 12:28:20;;;;;;;17.55;4.72;;;20.00;99.90;;;;;;5008232;28;20111;-91
2022/05/14 12:34:03;;;;;;;13.90;4.65;;;19.80;99.90;;;;;;5017960;28;20049;-93
2022/05/14 12:36:46;;;;;;;18.02;4.75;;;19.50;99.90;;;;;;5008595;28;20170;-93
2022/05/14 12:39:30;;;;;;;21.73;5.20;;;19.50;99.90;;;;;;5010729;28;20148;-93
2022/05/14 12:41:58;;;;;;;19.48;5.00;;;19.70;99.90;;;;;;5012520;28;20095;-92
2022/05/14 12:44:41;;;;;;;15.07;4.47;;;20.30;99.90;;;;;;5031021;28;20576;-91
2022/05/14 12:47:10;;;;;;;21.90;5.25;;;20.00;99.90;;;;;;5014743;28;20041;-93
2022/05/14 12:49:49;;;;;;;14.00;4.13;;;19.60;99.90;;;;;;5032129;28;20091;-92
2022/05/14 12:52:34;;;;;;;16.48;4.82;;;20.30;99.90;;;;;;5021980;28;20111;-91
2022/05/14 12:55:16;;;;;;;16.05;4.82;;;19.70;99.90;;;;;;5000848;28;20118;-93
2022/05/14 12:57:52;;;;;;;16.80;5.10;;;19.80;99.90;;;;;;4985898;28;20053;-91
2022/05/14 13:00:21;;;;;;;18.50;4.30;;;20.00;99.90;;;;;;4965671;28;20041;-92
2022/05/14 13:02:52;;;;;;;24.27;4.78;;;19.70;99.90;;;;;;4967414;28;20030;-92
2022/05/14 13:05:33;;;;;;;16.27;4.40;;;19.80;99.90;;;;;;4986437;28;20045;-92
2022/05/14 13:08:18;;;;;;;15.30;4.40;;;19.70;99.90;;;;;;4986394;28;20103;-91
2022/05/14 13:11:08;;;;;;;18.65;4.95;;;20.00;99.90;;;;;;4979870;28;20064;-91
2022/05/14 13:13:44;;;;;;;14.57;4.22;;;19.70;99.90;;;;;;4969649;28;20078;-91
2022/05/14 13:16:15;;;;;;;20.92;4.68;;;19.60;99.90;;;;;;4968171;28;20080;-91
2022/05/14 13:18:49;;;;;;;16.00;4.35;;;19.70;99.90;;;;;;4981380;28;20038;-90
2022/05/14 13:21:46;;;;;;;18.50;4.93;;;19.70;99.90;;;;;;4985593;28;20125;-91
2022/05/14 13:24:32;;;;;;;13.82;4.65;;;20.00;99.90;;;;;;4970953;28;20068;-91
2022/05/14 13:27:02;;;;;;;19.75;5.18;;;19.60;99.90;;;;;;4966587;28;20181;-91
2022/05/14 13:29:37;;;;;;;17.65;4.45;;;19.70;99.90;;;;;;4982308;28;20041;-92
2022/05/14 13:32:32;;;;;;;16.10;4.72;;;19.60;99.90;;;;;;4967667;28;20041;-90
2022/05/14 13:37:56;;;;;;;13.73;4.80;;;19.90;99.90;;;;;;4984833;28;20076;-91
2022/05/14 13:40:49;;;;;;;17.90;4.50;;;19.80;99.90;;;;;;4982360;28;20061;-91
2022/05/14 13:43:44;;;;;;;16.50;4.15;;;19.80;99.90;;;;;;4983352;28;20038;-92
2022/05/14 13:46:21;;;;;;;15.70;4.72;;;19.50;99.90;;;;;;5010740;28;20177;-90